sensor_id;sensor_type;location;lat;lon;timestamp;temperature;humidity
10171;DHT22;5127;50.922;6.988;2022-08-30T00:01:03;22.80;44.10
10171;DHT22;5127;50.922;6.988;2022-08-30T00:03:34;22.80;44.30
10171;DHT22;5127;50.922;6.988;2022-08-30T00:06:03;22.70;44.30
10171;DHT22;5127;50.922;6.988;2022-08-30T00:08:31;22.60;45.00
10171;DHT22;5127;50.922;6.988;2022-08-30T00:10:58;22.60;44.40
10171;DHT22;5127;50.922;6.988;2022-08-30T00:13:26;22.50;44.50
10171;DHT22;5127;50.922;6.988;2022-08-30T00:15:54;22.50;44.80
10171;DHT22;5127;50.922;6.988;2022-08-30T00:18:22;22.40;44.70
10171;DHT22;5127;50.922;6.988;2022-08-30T00:20:50;22.30;44.70
10171;DHT22;5127;50.922;6.988;2022-08-30T00:23:19;22.30;44.90
10171;DHT22;5127;50.922;6.988;2022-08-30T00:25:46;22.20;45.00
10171;DHT22;5127;50.922;6.988;2022-08-30T00:28:14;22.20;45.00
10171;DHT22;5127;50.922;6.988;2022-08-30T00:30:42;22.10;45.00
10171;DHT22;5127;50.922;6.988;2022-08-30T00:33:11;22.10;45.20
10171;DHT22;5127;50.922;6.988;2022-08-30T00:35:39;22.10;45.30
10171;DHT22;5127;50.922;6.988;2022-08-30T00:38:07;22.10;45.40
10171;DHT22;5127;50.922;6.988;2022-08-30T00:40:36;22.00;45.40
10171;DHT22;5127;50.922;6.988;2022-08-30T00:43:07;21.90;45.70
10171;DHT22;5127;50.922;6.988;2022-08-30T00:45:36;21.90;45.60
10171;DHT22;5127;50.922;6.988;2022-08-30T00:48:04;21.90;45.80
10171;DHT22;5127;50.922;6.988;2022-08-30T00:50:33;21.90;45.80
10171;DHT22;5127;50.922;6.988;2022-08-30T00:53:05;21.80;45.80
10171;DHT22;5127;50.922;6.988;2022-08-30T00:55:34;21.90;46.10
10171;DHT22;5127;50.922;6.988;2022-08-30T00:58:04;21.90;45.90
10171;DHT22;5127;50.922;6.988;2022-08-30T01:00:32;21.80;46.00
10171;DHT22;5127;50.922;6.988;2022-08-30T01:02:59;21.90;46.00
10171;DHT22;5127;50.922;6.988;2022-08-30T01:05:27;21.90;46.00
10171;DHT22;5127;50.922;6.988;2022-08-30T01:07:54;21.80;45.90
10171;DHT22;5127;50.922;6.988;2022-08-30T01:10:21;21.90;46.00
10171;DHT22;5127;50.922;6.988;2022-08-30T01:12:50;21.80;46.00
10171;DHT22;5127;50.922;6.988;2022-08-30T01:15:18;21.80;46.00
10171;DHT22;5127;50.922;6.988;2022-08-30T01:17:46;21.80;46.00
10171;DHT22;5127;50.922;6.988;2022-08-30T01:20:19;21.80;46.20
10171;DHT22;5127;50.922;6.988;2022-08-30T01:23:10;21.80;46.30
10171;DHT22;5127;50.922;6.988;2022-08-30T01:25:38;21.80;46.50
10171;DHT22;5127;50.922;6.988;2022-08-30T01:28:13;21.80;46.30
10171;DHT22;5127;50.922;6.988;2022-08-30T01:30:41;21.80;46.40
10171;DHT22;5127;50.922;6.988;2022-08-30T01:33:09;21.80;46.50
10171;DHT22;5127;50.922;6.988;2022-08-30T01:35:46;21.80;46.30
10171;DHT22;5127;50.922;6.988;2022-08-30T01:38:16;21.80;46.80
10171;DHT22;5127;50.922;6.988;2022-08-30T01:40:44;21.80;46.40
10171;DHT22;5127;50.922;6.988;2022-08-30T01:43:13;21.80;46.40
10171;DHT22;5127;50.922;6.988;2022-08-30T01:45:41;21.80;46.40
10171;DHT22;5127;50.922;6.988;2022-08-30T01:48:09;21.80;46.60
10171;DHT22;5127;50.922;6.988;2022-08-30T01:50:38;21.90;46.70
10171;DHT22;5127;50.922;6.988;2022-08-30T01:53:05;21.90;47.30
10171;DHT22;5127;50.922;6.988;2022-08-30T01:55:34;21.90;46.80
10171;DHT22;5127;50.922;6.988;2022-08-30T01:58:03;21.90;46.90
10171;DHT22;5127;50.922;6.988;2022-08-30T02:00:31;21.90;46.80
10171;DHT22;5127;50.922;6.988;2022-08-30T02:02:58;21.90;46.90
10171;DHT22;5127;50.922;6.988;2022-08-30T02:05:25;21.90;46.90
10171;DHT22;5127;50.922;6.988;2022-08-30T02:07:52;21.90;47.00
10171;DHT22;5127;50.922;6.988;2022-08-30T02:10:20;21.90;46.90
10171;DHT22;5127;50.922;6.988;2022-08-30T02:12:49;21.90;46.90
10171;DHT22;5127;50.922;6.988;2022-08-30T02:15:16;21.90;47.20
10171;DHT22;5127;50.922;6.988;2022-08-30T02:17:44;21.90;47.10
10171;DHT22;5127;50.922;6.988;2022-08-30T02:20:12;21.90;47.00
10171;DHT22;5127;50.922;6.988;2022-08-30T02:22:39;21.90;47.00
10171;DHT22;5127;50.922;6.988;2022-08-30T02:25:07;21.90;47.20
10171;DHT22;5127;50.922;6.988;2022-08-30T02:27:35;21.90;47.30
10171;DHT22;5127;50.922;6.988;2022-08-30T02:30:05;21.90;47.20
10171;DHT22;5127;50.922;6.988;2022-08-30T02:32:32;21.90;47.20
10171;DHT22;5127;50.922;6.988;2022-08-30T02:35:00;21.90;47.20
10171;DHT22;5127;50.922;6.988;2022-08-30T02:37:27;22.00;47.20
10171;DHT22;5127;50.922;6.988;2022-08-30T02:39:54;22.00;47.20
10171;DHT22;5127;50.922;6.988;2022-08-30T02:42:22;22.00;47.20
10171;DHT22;5127;50.922;6.988;2022-08-30T02:44:49;22.00;47.40
10171;DHT22;5127;50.922;6.988;2022-08-30T02:47:17;22.00;47.40
10171;DHT22;5127;50.922;6.988;2022-08-30T02:49:44;22.00;47.40
10171;DHT22;5127;50.922;6.988;2022-08-30T02:52:12;22.00;47.40
10171;DHT22;5127;50.922;6.988;2022-08-30T02:54:39;22.00;47.30
10171;DHT22;5127;50.922;6.988;2022-08-30T02:57:06;22.00;47.30
10171;DHT22;5127;50.922;6.988;2022-08-30T02:59:34;22.00;47.30
10171;DHT22;5127;50.922;6.988;2022-08-30T03:02:06;22.00;47.30
10171;DHT22;5127;50.922;6.988;2022-08-30T03:04:35;22.00;47.30
10171;DHT22;5127;50.922;6.988;2022-08-30T03:07:04;21.90;47.30
10171;DHT22;5127;50.922;6.988;2022-08-30T03:09:31;21.90;47.20
10171;DHT22;5127;50.922;6.988;2022-08-30T03:11:59;21.90;47.30
10171;DHT22;5127;50.922;6.988;2022-08-30T03:14:26;21.90;47.20
10171;DHT22;5127;50.922;6.988;2022-08-30T03:16:54;21.80;47.20
10171;DHT22;5127;50.922;6.988;2022-08-30T03:19:21;21.80;47.40
10171;DHT22;5127;50.922;6.988;2022-08-30T03:21:50;21.80;47.40
10171;DHT22;5127;50.922;6.988;2022-08-30T03:24:17;21.80;47.40
10171;DHT22;5127;50.922;6.988;2022-08-30T03:26:44;21.80;47.40
10171;DHT22;5127;50.922;6.988;2022-08-30T03:29:12;21.70;47.50
10171;DHT22;5127;50.922;6.988;2022-08-30T03:31:39;21.70;47.50
10171;DHT22;5127;50.922;6.988;2022-08-30T03:34:06;21.70;47.60
10171;DHT22;5127;50.922;6.988;2022-08-30T03:36:35;21.60;47.50
10171;DHT22;5127;50.922;6.988;2022-08-30T03:39:05;21.70;47.60
10171;DHT22;5127;50.922;6.988;2022-08-30T03:41:32;21.70;47.90
10171;DHT22;5127;50.922;6.988;2022-08-30T03:44:00;21.70;47.80
10171;DHT22;5127;50.922;6.988;2022-08-30T03:46:28;21.60;47.80
10171;DHT22;5127;50.922;6.988;2022-08-30T03:48:55;21.60;47.90
10171;DHT22;5127;50.922;6.988;2022-08-30T03:51:23;21.60;47.80
10171;DHT22;5127;50.922;6.988;2022-08-30T03:53:50;21.60;47.90
10171;DHT22;5127;50.922;6.988;2022-08-30T03:56:19;21.60;47.80
10171;DHT22;5127;50.922;6.988;2022-08-30T03:58:46;21.60;47.90
10171;DHT22;5127;50.922;6.988;2022-08-30T04:01:14;21.60;47.90
10171;DHT22;5127;50.922;6.988;2022-08-30T04:03:41;21.60;48.00
10171;DHT22;5127;50.922;6.988;2022-08-30T04:06:08;21.60;48.00
10171;DHT22;5127;50.922;6.988;2022-08-30T04:08:36;21.50;47.80
10171;DHT22;5127;50.922;6.988;2022-08-30T04:11:04;21.50;47.80
10171;DHT22;5127;50.922;6.988;2022-08-30T04:13:33;21.50;47.80
10171;DHT22;5127;50.922;6.988;2022-08-30T04:16:01;21.50;48.00
10171;DHT22;5127;50.922;6.988;2022-08-30T04:18:28;21.40;47.80
10171;DHT22;5127;50.922;6.988;2022-08-30T04:20:56;21.40;47.90
10171;DHT22;5127;50.922;6.988;2022-08-30T04:23:23;21.30;47.90
10171;DHT22;5127;50.922;6.988;2022-08-30T04:25:50;21.30;48.00
10171;DHT22;5127;50.922;6.988;2022-08-30T04:28:17;21.30;48.00
10171;DHT22;5127;50.922;6.988;2022-08-30T04:30:46;21.20;48.00
10171;DHT22;5127;50.922;6.988;2022-08-30T04:33:14;21.20;48.30
10171;DHT22;5127;50.922;6.988;2022-08-30T04:35:43;21.10;48.10
10171;DHT22;5127;50.922;6.988;2022-08-30T04:38:12;21.10;48.40
10171;DHT22;5127;50.922;6.988;2022-08-30T04:40:40;21.00;48.30
10171;DHT22;5127;50.922;6.988;2022-08-30T04:43:08;21.00;48.60
10171;DHT22;5127;50.922;6.988;2022-08-30T04:45:37;21.00;48.60
10171;DHT22;5127;50.922;6.988;2022-08-30T04:48:06;20.90;48.70
10171;DHT22;5127;50.922;6.988;2022-08-30T04:50:34;20.90;48.90
10171;DHT22;5127;50.922;6.988;2022-08-30T04:53:11;20.90;49.00
10171;DHT22;5127;50.922;6.988;2022-08-30T04:55:38;20.80;49.00
10171;DHT22;5127;50.922;6.988;2022-08-30T04:58:06;20.80;48.90
10171;DHT22;5127;50.922;6.988;2022-08-30T05:00:33;20.70;49.00
10171;DHT22;5127;50.922;6.988;2022-08-30T05:03:02;20.70;49.10
10171;DHT22;5127;50.922;6.988;2022-08-30T05:05:31;20.70;49.20
10171;DHT22;5127;50.922;6.988;2022-08-30T05:08:10;20.70;49.40
10171;DHT22;5127;50.922;6.988;2022-08-30T05:10:39;20.80;49.60
10171;DHT22;5127;50.922;6.988;2022-08-30T05:13:06;20.80;49.70
10171;DHT22;5127;50.922;6.988;2022-08-30T05:15:34;20.80;49.70
10171;DHT22;5127;50.922;6.988;2022-08-30T05:18:01;20.90;49.80
10171;DHT22;5127;50.922;6.988;2022-08-30T05:20:28;20.90;50.00
10171;DHT22;5127;50.922;6.988;2022-08-30T05:22:57;20.90;50.00
10171;DHT22;5127;50.922;6.988;2022-08-30T05:25:26;21.00;50.00
10171;DHT22;5127;50.922;6.988;2022-08-30T05:27:54;21.00;50.30
10171;DHT22;5127;50.922;6.988;2022-08-30T05:30:23;21.10;50.30
10171;DHT22;5127;50.922;6.988;2022-08-30T05:32:51;21.10;50.10
10171;DHT22;5127;50.922;6.988;2022-08-30T05:35:19;21.20;50.00
10171;DHT22;5127;50.922;6.988;2022-08-30T05:37:46;21.20;50.70
10171;DHT22;5127;50.922;6.988;2022-08-30T05:40:15;21.20;49.90
10171;DHT22;5127;50.922;6.988;2022-08-30T05:42:43;21.20;50.00
10171;DHT22;5127;50.922;6.988;2022-08-30T05:45:11;21.20;50.00
10171;DHT22;5127;50.922;6.988;2022-08-30T05:47:39;21.20;50.00
10171;DHT22;5127;50.922;6.988;2022-08-30T05:50:07;21.20;49.90
10171;DHT22;5127;50.922;6.988;2022-08-30T05:52:35;21.30;50.30
10171;DHT22;5127;50.922;6.988;2022-08-30T05:55:03;21.30;50.10
10171;DHT22;5127;50.922;6.988;2022-08-30T05:57:34;21.30;50.10
10171;DHT22;5127;50.922;6.988;2022-08-30T06:00:06;21.30;50.10
10171;DHT22;5127;50.922;6.988;2022-08-30T06:02:38;21.40;50.40
10171;DHT22;5127;50.922;6.988;2022-08-30T06:05:06;21.40;50.20
10171;DHT22;5127;50.922;6.988;2022-08-30T06:07:34;21.50;50.30
10171;DHT22;5127;50.922;6.988;2022-08-30T06:10:03;21.50;50.20
10171;DHT22;5127;50.922;6.988;2022-08-30T06:12:31;21.60;50.40
10171;DHT22;5127;50.922;6.988;2022-08-30T06:15:00;21.70;50.50
10171;DHT22;5127;50.922;6.988;2022-08-30T06:17:27;21.80;50.50
10171;DHT22;5127;50.922;6.988;2022-08-30T06:19:54;21.80;50.40
10171;DHT22;5127;50.922;6.988;2022-08-30T06:22:21;21.90;50.30
10171;DHT22;5127;50.922;6.988;2022-08-30T06:24:49;22.00;50.30
10171;DHT22;5127;50.922;6.988;2022-08-30T06:27:16;22.10;50.50
10171;DHT22;5127;50.922;6.988;2022-08-30T06:29:43;22.20;50.50
10171;DHT22;5127;50.922;6.988;2022-08-30T06:32:12;22.30;50.40
10171;DHT22;5127;50.922;6.988;2022-08-30T06:34:39;22.40;50.30
10171;DHT22;5127;50.922;6.988;2022-08-30T06:37:06;22.50;50.10
10171;DHT22;5127;50.922;6.988;2022-08-30T06:39:35;22.50;49.90
10171;DHT22;5127;50.922;6.988;2022-08-30T06:42:02;22.60;49.90
10171;DHT22;5127;50.922;6.988;2022-08-30T06:44:32;22.60;49.70
10171;DHT22;5127;50.922;6.988;2022-08-30T06:46:59;22.70;49.50
10171;DHT22;5127;50.922;6.988;2022-08-30T06:49:28;22.70;49.50
10171;DHT22;5127;50.922;6.988;2022-08-30T06:51:55;22.70;49.40
10171;DHT22;5127;50.922;6.988;2022-08-30T06:54:23;22.70;49.40
10171;DHT22;5127;50.922;6.988;2022-08-30T06:56:50;22.70;49.30
10171;DHT22;5127;50.922;6.988;2022-08-30T06:59:18;22.70;49.40
10171;DHT22;5127;50.922;6.988;2022-08-30T07:01:45;22.80;49.60
10171;DHT22;5127;50.922;6.988;2022-08-30T07:04:13;22.80;49.60
10171;DHT22;5127;50.922;6.988;2022-08-30T07:06:42;22.90;49.70
10171;DHT22;5127;50.922;6.988;2022-08-30T07:09:09;23.00;49.70
10171;DHT22;5127;50.922;6.988;2022-08-30T07:11:37;23.10;49.80
10171;DHT22;5127;50.922;6.988;2022-08-30T07:14:05;23.20;50.40
10171;DHT22;5127;50.922;6.988;2022-08-30T07:16:33;23.50;50.90
10171;DHT22;5127;50.922;6.988;2022-08-30T07:19:01;23.80;51.70
10171;DHT22;5127;50.922;6.988;2022-08-30T07:21:32;24.20;52.10
10171;DHT22;5127;50.922;6.988;2022-08-30T07:24:02;24.70;52.20
10171;DHT22;5127;50.922;6.988;2022-08-30T07:26:33;25.20;51.30
10171;DHT22;5127;50.922;6.988;2022-08-30T07:29:01;25.70;51.00
10171;DHT22;5127;50.922;6.988;2022-08-30T07:31:29;26.20;50.30
10171;DHT22;5127;50.922;6.988;2022-08-30T07:33:56;26.50;49.20
10171;DHT22;5127;50.922;6.988;2022-08-30T07:36:24;26.80;48.80
10171;DHT22;5127;50.922;6.988;2022-08-30T07:38:51;27.20;48.60
10171;DHT22;5127;50.922;6.988;2022-08-30T07:41:23;27.40;48.00
10171;DHT22;5127;50.922;6.988;2022-08-30T07:43:51;27.70;47.60
10171;DHT22;5127;50.922;6.988;2022-08-30T07:46:19;28.00;47.60
10171;DHT22;5127;50.922;6.988;2022-08-30T07:48:47;28.40;47.20
10171;DHT22;5127;50.922;6.988;2022-08-30T07:51:16;28.70;47.20
10171;DHT22;5127;50.922;6.988;2022-08-30T07:53:43;29.10;46.80
10171;DHT22;5127;50.922;6.988;2022-08-30T07:56:12;29.50;46.70
10171;DHT22;5127;50.922;6.988;2022-08-30T07:58:41;29.80;46.20
10171;DHT22;5127;50.922;6.988;2022-08-30T08:01:10;30.20;45.30
10171;DHT22;5127;50.922;6.988;2022-08-30T08:03:39;30.50;44.60
10171;DHT22;5127;50.922;6.988;2022-08-30T08:06:08;30.80;43.90
10171;DHT22;5127;50.922;6.988;2022-08-30T08:08:36;31.00;43.20
10171;DHT22;5127;50.922;6.988;2022-08-30T08:11:07;31.20;42.90
10171;DHT22;5127;50.922;6.988;2022-08-30T08:13:35;31.30;41.70
10171;DHT22;5127;50.922;6.988;2022-08-30T08:16:04;31.40;42.10
10171;DHT22;5127;50.922;6.988;2022-08-30T08:18:31;31.50;41.10
10171;DHT22;5127;50.922;6.988;2022-08-30T08:21:00;31.50;41.20
10171;DHT22;5127;50.922;6.988;2022-08-30T08:23:27;31.60;41.10
10171;DHT22;5127;50.922;6.988;2022-08-30T08:25:55;31.80;41.10
10171;DHT22;5127;50.922;6.988;2022-08-30T08:28:23;31.90;41.10
10171;DHT22;5127;50.922;6.988;2022-08-30T08:30:51;32.00;40.50
10171;DHT22;5127;50.922;6.988;2022-08-30T08:33:20;32.10;40.50
10171;DHT22;5127;50.922;6.988;2022-08-30T08:35:47;32.30;40.20
10171;DHT22;5127;50.922;6.988;2022-08-30T08:38:15;32.50;40.30
10171;DHT22;5127;50.922;6.988;2022-08-30T08:40:58;32.60;40.30
10171;DHT22;5127;50.922;6.988;2022-08-30T08:43:32;32.80;39.20
10171;DHT22;5127;50.922;6.988;2022-08-30T08:46:05;33.00;39.00
10171;DHT22;5127;50.922;6.988;2022-08-30T08:48:41;33.10;38.70
10171;DHT22;5127;50.922;6.988;2022-08-30T08:51:13;33.30;38.20
10171;DHT22;5127;50.922;6.988;2022-08-30T08:54:01;33.40;38.20
10171;DHT22;5127;50.922;6.988;2022-08-30T08:56:31;33.60;37.90
10171;DHT22;5127;50.922;6.988;2022-08-30T08:58:59;33.70;37.90
10171;DHT22;5127;50.922;6.988;2022-08-30T09:01:28;33.80;37.50
10171;DHT22;5127;50.922;6.988;2022-08-30T09:04:00;34.00;37.20
10171;DHT22;5127;50.922;6.988;2022-08-30T09:06:41;34.00;37.10
10171;DHT22;5127;50.922;6.988;2022-08-30T09:09:11;34.20;36.50
10171;DHT22;5127;50.922;6.988;2022-08-30T09:11:40;34.20;37.00
10171;DHT22;5127;50.922;6.988;2022-08-30T09:14:12;34.30;36.00
10171;DHT22;5127;50.922;6.988;2022-08-30T09:16:57;34.30;35.30
10171;DHT22;5127;50.922;6.988;2022-08-30T09:19:41;34.40;36.00
10171;DHT22;5127;50.922;6.988;2022-08-30T09:22:17;34.40;34.90
10171;DHT22;5127;50.922;6.988;2022-08-30T09:24:49;34.50;34.30
10171;DHT22;5127;50.922;6.988;2022-08-30T09:27:29;34.40;33.90
10171;DHT22;5127;50.922;6.988;2022-08-30T09:30:01;34.40;34.00
10171;DHT22;5127;50.922;6.988;2022-08-30T09:32:33;34.30;33.70
10171;DHT22;5127;50.922;6.988;2022-08-30T09:35:04;34.10;33.50
10171;DHT22;5127;50.922;6.988;2022-08-30T09:37:35;34.00;33.20
10171;DHT22;5127;50.922;6.988;2022-08-30T09:40:09;33.90;33.10
10171;DHT22;5127;50.922;6.988;2022-08-30T09:42:37;33.70;32.80
10171;DHT22;5127;50.922;6.988;2022-08-30T09:45:17;33.50;33.10
10171;DHT22;5127;50.922;6.988;2022-08-30T09:47:45;33.20;33.30
10171;DHT22;5127;50.922;6.988;2022-08-30T09:50:15;33.00;33.10
10171;DHT22;5127;50.922;6.988;2022-08-30T09:52:54;32.80;33.20
10171;DHT22;5127;50.922;6.988;2022-08-30T09:55:38;32.60;32.50
10171;DHT22;5127;50.922;6.988;2022-08-30T09:58:13;32.40;33.40
10171;DHT22;5127;50.922;6.988;2022-08-30T10:00:48;32.10;33.80
10171;DHT22;5127;50.922;6.988;2022-08-30T10:03:30;32.00;34.20
10171;DHT22;5127;50.922;6.988;2022-08-30T10:06:07;31.90;34.00
10171;DHT22;5127;50.922;6.988;2022-08-30T10:08:49;31.70;33.90
10171;DHT22;5127;50.922;6.988;2022-08-30T10:11:25;31.60;34.30
10171;DHT22;5127;50.922;6.988;2022-08-30T10:14:02;31.40;34.00
10171;DHT22;5127;50.922;6.988;2022-08-30T10:16:40;31.30;33.90
10171;DHT22;5127;50.922;6.988;2022-08-30T10:19:20;31.10;34.20
10171;DHT22;5127;50.922;6.988;2022-08-30T10:21:57;31.00;34.40
10171;DHT22;5127;50.922;6.988;2022-08-30T10:24:31;30.80;34.80
10171;DHT22;5127;50.922;6.988;2022-08-30T10:27:04;30.70;35.20
10171;DHT22;5127;50.922;6.988;2022-08-30T10:29:39;30.70;35.30
10171;DHT22;5127;50.922;6.988;2022-08-30T10:32:11;30.70;35.40
10171;DHT22;5127;50.922;6.988;2022-08-30T10:34:45;30.60;35.40
10171;DHT22;5127;50.922;6.988;2022-08-30T10:37:18;30.60;35.20
10171;DHT22;5127;50.922;6.988;2022-08-30T10:39:49;30.60;35.50
10171;DHT22;5127;50.922;6.988;2022-08-30T10:42:22;30.60;35.60
10171;DHT22;5127;50.922;6.988;2022-08-30T10:44:51;30.60;35.40
10171;DHT22;5127;50.922;6.988;2022-08-30T10:47:27;30.60;35.10
10171;DHT22;5127;50.922;6.988;2022-08-30T10:50:05;30.60;34.70
10171;DHT22;5127;50.922;6.988;2022-08-30T10:52:40;30.60;34.50
10171;DHT22;5127;50.922;6.988;2022-08-30T10:55:13;30.60;34.50
10171;DHT22;5127;50.922;6.988;2022-08-30T10:57:40;30.60;34.50
10171;DHT22;5127;50.922;6.988;2022-08-30T11:00:10;30.60;34.70
10171;DHT22;5127;50.922;6.988;2022-08-30T11:06:04;30.70;34.80
10171;DHT22;5127;50.922;6.988;2022-08-30T11:08:55;30.70;34.70
10171;DHT22;5127;50.922;6.988;2022-08-30T11:11:34;30.70;34.80
10171;DHT22;5127;50.922;6.988;2022-08-30T11:14:07;30.80;34.40
10171;DHT22;5127;50.922;6.988;2022-08-30T11:16:38;30.80;34.50
10171;DHT22;5127;50.922;6.988;2022-08-30T11:19:14;30.70;34.10
10171;DHT22;5127;50.922;6.988;2022-08-30T11:21:42;30.80;34.00
10171;DHT22;5127;50.922;6.988;2022-08-30T11:24:14;30.80;34.50
10171;DHT22;5127;50.922;6.988;2022-08-30T11:26:57;30.80;34.20
10171;DHT22;5127;50.922;6.988;2022-08-30T11:29:43;30.80;34.20
10171;DHT22;5127;50.922;6.988;2022-08-30T11:35:06;30.90;34.00
10171;DHT22;5127;50.922;6.988;2022-08-30T11:37:40;31.00;34.90
10171;DHT22;5127;50.922;6.988;2022-08-30T11:40:43;31.00;33.70
10171;DHT22;5127;50.922;6.988;2022-08-30T11:43:50;31.00;34.00
10171;DHT22;5127;50.922;6.988;2022-08-30T11:46:35;31.10;34.10
10171;DHT22;5127;50.922;6.988;2022-08-30T11:49:25;31.10;34.00
10171;DHT22;5127;50.922;6.988;2022-08-30T11:52:09;31.10;33.50
10171;DHT22;5127;50.922;6.988;2022-08-30T11:54:43;31.10;33.30
10171;DHT22;5127;50.922;6.988;2022-08-30T11:57:24;31.20;33.40
10171;DHT22;5127;50.922;6.988;2022-08-30T12:00:03;31.20;33.30
10171;DHT22;5127;50.922;6.988;2022-08-30T12:02:47;31.10;33.40
10171;DHT22;5127;50.922;6.988;2022-08-30T12:08:46;31.10;33.40
10171;DHT22;5127;50.922;6.988;2022-08-30T12:11:51;31.10;33.40
10171;DHT22;5127;50.922;6.988;2022-08-30T12:14:40;31.00;33.40
10171;DHT22;5127;50.922;6.988;2022-08-30T12:17:17;31.00;33.30
10171;DHT22;5127;50.922;6.988;2022-08-30T12:20:04;31.00;33.30
10171;DHT22;5127;50.922;6.988;2022-08-30T12:22:37;30.80;33.30
10171;DHT22;5127;50.922;6.988;2022-08-30T12:25:18;30.80;33.50
10171;DHT22;5127;50.922;6.988;2022-08-30T12:27:46;30.70;33.60
10171;DHT22;5127;50.922;6.988;2022-08-30T12:30:24;30.70;33.90
10171;DHT22;5127;50.922;6.988;2022-08-30T12:32:52;30.80;34.00
10171;DHT22;5127;50.922;6.988;2022-08-30T12:35:23;30.80;34.20
10171;DHT22;5127;50.922;6.988;2022-08-30T12:37:59;30.90;34.10
10171;DHT22;5127;50.922;6.988;2022-08-30T12:40:27;30.90;33.80
10171;DHT22;5127;50.922;6.988;2022-08-30T12:42:59;31.00;33.90
10171;DHT22;5127;50.922;6.988;2022-08-30T12:45:31;31.00;33.70
10171;DHT22;5127;50.922;6.988;2022-08-30T12:48:00;31.00;33.50
10171;DHT22;5127;50.922;6.988;2022-08-30T12:50:33;31.00;33.70
10171;DHT22;5127;50.922;6.988;2022-08-30T12:53:03;30.90;33.60
10171;DHT22;5127;50.922;6.988;2022-08-30T12:55:33;31.00;33.80
10171;DHT22;5127;50.922;6.988;2022-08-30T12:58:03;30.90;33.60
10171;DHT22;5127;50.922;6.988;2022-08-30T13:00:35;30.90;33.50
10171;DHT22;5127;50.922;6.988;2022-08-30T13:03:04;30.90;33.50
10171;DHT22;5127;50.922;6.988;2022-08-30T13:05:43;30.80;34.10
10171;DHT22;5127;50.922;6.988;2022-08-30T13:08:14;30.80;33.70
10171;DHT22;5127;50.922;6.988;2022-08-30T13:10:50;30.80;33.70
10171;DHT22;5127;50.922;6.988;2022-08-30T13:13:34;30.70;33.80
10171;DHT22;5127;50.922;6.988;2022-08-30T13:16:19;30.70;33.80
10171;DHT22;5127;50.922;6.988;2022-08-30T13:18:48;30.70;33.90
10171;DHT22;5127;50.922;6.988;2022-08-30T13:21:26;30.70;34.10
10171;DHT22;5127;50.922;6.988;2022-08-30T13:23:58;30.70;33.70
10171;DHT22;5127;50.922;6.988;2022-08-30T13:26:26;30.70;33.70
10171;DHT22;5127;50.922;6.988;2022-08-30T13:28:56;30.70;33.70
10171;DHT22;5127;50.922;6.988;2022-08-30T13:31:26;30.70;33.80
10171;DHT22;5127;50.922;6.988;2022-08-30T13:33:55;30.70;34.00
10171;DHT22;5127;50.922;6.988;2022-08-30T13:36:25;30.80;34.00
10171;DHT22;5127;50.922;6.988;2022-08-30T13:38:54;30.80;33.90
10171;DHT22;5127;50.922;6.988;2022-08-30T13:41:22;30.80;34.10
10171;DHT22;5127;50.922;6.988;2022-08-30T13:43:50;30.80;34.00
10171;DHT22;5127;50.922;6.988;2022-08-30T13:46:19;30.80;34.00
10171;DHT22;5127;50.922;6.988;2022-08-30T13:48:50;30.80;33.90
10171;DHT22;5127;50.922;6.988;2022-08-30T13:51:21;30.80;34.40
10171;DHT22;5127;50.922;6.988;2022-08-30T13:53:48;30.80;34.30
10171;DHT22;5127;50.922;6.988;2022-08-30T13:56:15;30.80;34.40
10171;DHT22;5127;50.922;6.988;2022-08-30T13:58:42;30.80;34.40
10171;DHT22;5127;50.922;6.988;2022-08-30T14:01:10;30.90;34.60
10171;DHT22;5127;50.922;6.988;2022-08-30T14:03:37;30.90;34.60
10171;DHT22;5127;50.922;6.988;2022-08-30T14:06:06;30.90;34.70
10171;DHT22;5127;50.922;6.988;2022-08-30T14:08:33;30.90;34.80
10171;DHT22;5127;50.922;6.988;2022-08-30T14:11:03;30.90;34.80
10171;DHT22;5127;50.922;6.988;2022-08-30T14:13:30;30.80;34.70
10171;DHT22;5127;50.922;6.988;2022-08-30T14:16:00;30.90;34.80
10171;DHT22;5127;50.922;6.988;2022-08-30T14:18:30;30.80;34.60
10171;DHT22;5127;50.922;6.988;2022-08-30T14:20:57;30.80;34.30
10171;DHT22;5127;50.922;6.988;2022-08-30T14:23:27;30.80;34.40
10171;DHT22;5127;50.922;6.988;2022-08-30T14:25:55;30.80;34.30
10171;DHT22;5127;50.922;6.988;2022-08-30T14:28:25;30.80;34.40
10171;DHT22;5127;50.922;6.988;2022-08-30T14:30:55;30.80;34.30
10171;DHT22;5127;50.922;6.988;2022-08-30T14:33:22;30.80;34.40
10171;DHT22;5127;50.922;6.988;2022-08-30T14:35:49;30.80;34.50
10171;DHT22;5127;50.922;6.988;2022-08-30T14:38:16;30.80;34.60
10171;DHT22;5127;50.922;6.988;2022-08-30T14:40:45;30.80;34.80
10171;DHT22;5127;50.922;6.988;2022-08-30T14:43:12;30.80;34.90
10171;DHT22;5127;50.922;6.988;2022-08-30T14:45:39;30.80;35.00
10171;DHT22;5127;50.922;6.988;2022-08-30T14:48:07;30.80;35.00
10171;DHT22;5127;50.922;6.988;2022-08-30T14:50:34;30.80;35.00
10171;DHT22;5127;50.922;6.988;2022-08-30T14:53:02;30.80;35.00
10171;DHT22;5127;50.922;6.988;2022-08-30T14:55:29;30.80;35.00
10171;DHT22;5127;50.922;6.988;2022-08-30T14:57:58;30.90;35.20
10171;DHT22;5127;50.922;6.988;2022-08-30T15:00:26;30.80;35.20
10171;DHT22;5127;50.922;6.988;2022-08-30T15:02:54;30.80;35.30
10171;DHT22;5127;50.922;6.988;2022-08-30T15:05:21;30.70;35.40
10171;DHT22;5127;50.922;6.988;2022-08-30T15:07:49;30.70;35.50
10171;DHT22;5127;50.922;6.988;2022-08-30T15:10:18;30.70;35.60
10171;DHT22;5127;50.922;6.988;2022-08-30T15:12:46;30.70;35.60
10171;DHT22;5127;50.922;6.988;2022-08-30T15:15:17;30.80;35.40
10171;DHT22;5127;50.922;6.988;2022-08-30T15:17:45;30.70;35.20
10171;DHT22;5127;50.922;6.988;2022-08-30T15:20:13;30.80;35.20
10171;DHT22;5127;50.922;6.988;2022-08-30T15:22:43;30.80;35.30
10171;DHT22;5127;50.922;6.988;2022-08-30T15:25:11;30.80;35.50
10171;DHT22;5127;50.922;6.988;2022-08-30T15:27:38;30.70;35.50
10171;DHT22;5127;50.922;6.988;2022-08-30T15:30:06;30.70;35.50
10171;DHT22;5127;50.922;6.988;2022-08-30T15:32:35;30.70;35.60
10171;DHT22;5127;50.922;6.988;2022-08-30T15:35:03;30.70;35.70
10171;DHT22;5127;50.922;6.988;2022-08-30T15:37:31;30.70;35.80
10171;DHT22;5127;50.922;6.988;2022-08-30T15:39:58;30.60;35.80
10171;DHT22;5127;50.922;6.988;2022-08-30T15:42:25;30.70;35.90
10171;DHT22;5127;50.922;6.988;2022-08-30T15:44:54;30.60;36.30
10171;DHT22;5127;50.922;6.988;2022-08-30T15:47:22;30.70;35.80
10171;DHT22;5127;50.922;6.988;2022-08-30T15:49:55;30.60;35.80
10171;DHT22;5127;50.922;6.988;2022-08-30T15:52:23;30.60;35.60
10171;DHT22;5127;50.922;6.988;2022-08-30T15:54:51;30.60;35.60
10171;DHT22;5127;50.922;6.988;2022-08-30T15:57:18;30.60;35.60
10171;DHT22;5127;50.922;6.988;2022-08-30T15:59:46;30.50;35.50
10171;DHT22;5127;50.922;6.988;2022-08-30T16:02:13;30.50;35.50
10171;DHT22;5127;50.922;6.988;2022-08-30T16:04:40;30.50;35.70
10171;DHT22;5127;50.922;6.988;2022-08-30T16:07:09;30.40;35.80
10171;DHT22;5127;50.922;6.988;2022-08-30T16:09:37;30.40;36.00
10171;DHT22;5127;50.922;6.988;2022-08-30T16:12:06;30.30;36.10
10171;DHT22;5127;50.922;6.988;2022-08-30T16:14:34;30.30;36.20